Kota Cantik — 9V9693 — position and weather

sailwx.info

Track history (hours):
 
Tides and Currents Weather Stations Pressure Air Temp Water Temp Dewpoint Dewpoint Depression Visibility Wind Speed Wind Dir Waves Ship Positions

Kota Cantik

Last reported at 2018-Jul-21 21:00 UTC. Time now 2018-Jul-23 05:22 UTC.
Position N 48°48' W 169°24'.

Length 301 m; draft 11.5 m.

Type: Cargo ship. MMSI: 566658000.

Wind from 180 at 18 knots

Barometer 1011.0 mb
Air temperature 8.0 ° C
Water temperature 14.0 ° C

Date/timePositionNaut miles runAvg speedWind from/ knotsBaromVisibWave heightAir tempDewpointWater temp
2018-Jul-21 21:00N 48°48' W 169°24'   180 / 181011.0 8.0 14.0
2018-Jul-13 19:39N 31°10' E 122°11'312.2
2018-Jul-13 19:26N 31°12' E 122°09'611.8
2018-Jul-13 18:55N 31°14' E 122°02'614.1
2018-Jul-13 18:30N 31°15' E 121°56'713.3
2018-Jul-13 18:00N 31°17' E 121°48'7 0.2
2018-Jul-12 02:46N 31°21' E 121°41'310.3
2018-Jul-12 02:26N 31°19' E 121°44'510.7
2018-Jul-12 01:58N 31°17' E 121°50'511.1
2018-Jul-12 01:30N 31°16' E 121°55'611.5
2018-Jul-12 00:59N 31°14' E 122°02'1211.2
2018-Jul-11 23:54N 31°08' E 122°15'410.0
2018-Jul-11 23:28N 31°06' E 122°19'  
Track history (hours):
 
Tides and Currents Weather Stations Pressure Air Temp Water Temp Dewpoint Dewpoint Depression Visibility Wind Speed Wind Dir Waves Ship Positions

Kota Cantik

Last reported at 2018-Jul-21 21:00 UTC. Time now 2018-Jul-23 05:22 UTC.
Position N 48°48' W 169°24'.

Length 301 m; draft 11.5 m.

Type: Cargo ship. MMSI: 566658000.

Wind from 180 at 18 knots

Barometer 1011.0 mb
Air temperature 8.0 ° C
Water temperature 14.0 ° C

Date/timePositionNaut miles runAvg speedWind from/ knotsBaromVisibWave heightAir tempDewpointWater temp
2018-Jul-21 21:00N 48°48' W 169°24'   180 / 181011.0 8.0 14.0
2018-Jul-13 19:39N 31°10' E 122°11'312.2
2018-Jul-13 19:26N 31°12' E 122°09'611.8
2018-Jul-13 18:55N 31°14' E 122°02'614.1
2018-Jul-13 18:30N 31°15' E 121°56'713.3
2018-Jul-13 18:00N 31°17' E 121°48'7 0.2
2018-Jul-12 02:46N 31°21' E 121°41'310.3
2018-Jul-12 02:26N 31°19' E 121°44'510.7
2018-Jul-12 01:58N 31°17' E 121°50'511.1
2018-Jul-12 01:30N 31°16' E 121°55'611.5
2018-Jul-12 00:59N 31°14' E 122°02'1211.2
2018-Jul-11 23:54N 31°08' E 122°15'410.0
2018-Jul-11 23:28N 31°06' E 122°19'  

Dump ship's entire track history